createdAt,value
2019-05-13T00:02:04.582Z,4.70
2019-05-13T00:04:33.720Z,5.20
2019-05-13T00:07:01.414Z,4.50
2019-05-13T00:09:28.882Z,4.93
2019-05-13T00:11:56.232Z,4.77
2019-05-13T00:14:23.940Z,4.47
2019-05-13T00:16:53.467Z,4.57
2019-05-13T00:19:20.652Z,4.80
2019-05-13T00:21:48.078Z,4.77
2019-05-13T00:24:15.366Z,4.77
2019-05-13T00:26:44.473Z,4.80
2019-05-13T00:29:14.115Z,4.90
2019-05-13T00:31:43.712Z,4.70
2019-05-13T00:34:10.613Z,4.60
2019-05-13T00:36:38.109Z,4.63
2019-05-13T00:39:07.188Z,4.70
2019-05-13T00:41:34.541Z,4.47
2019-05-13T00:44:03.806Z,5.00
2019-05-13T00:46:33.839Z,4.87
2019-05-13T00:49:00.713Z,4.80
2019-05-13T00:51:28.081Z,4.33
2019-05-13T00:53:55.473Z,5.07
2019-05-13T00:56:23.770Z,4.50
2019-05-13T00:58:51.274Z,4.40
2019-05-13T01:01:18.618Z,4.33
2019-05-13T01:03:46.115Z,4.93
2019-05-13T01:06:13.542Z,4.90
2019-05-13T01:08:40.876Z,4.47
2019-05-13T01:11:08.280Z,4.83
2019-05-13T01:13:35.735Z,4.80
2019-05-13T01:16:03.691Z,4.77
2019-05-13T01:18:31.302Z,4.47
2019-05-13T01:20:58.679Z,4.73
2019-05-13T01:23:26.133Z,4.77
2019-05-13T01:25:54.436Z,4.90
2019-05-13T01:28:23.901Z,5.20
2019-05-13T01:30:53.795Z,5.13
2019-05-13T01:33:20.622Z,4.67
2019-05-13T01:35:47.996Z,5.30
2019-05-13T01:38:15.330Z,5.30
2019-05-13T01:40:43.966Z,5.23
2019-05-13T01:43:14.121Z,5.30
2019-05-13T01:45:40.745Z,5.00
2019-05-13T01:48:08.304Z,5.30
2019-05-13T01:50:35.872Z,4.70
2019-05-13T01:53:04.311Z,5.37
2019-05-13T01:55:33.948Z,5.57
2019-05-13T01:58:03.894Z,5.90
2019-05-13T02:00:30.729Z,5.83
2019-05-13T02:02:58.160Z,5.10
2019-05-13T02:05:25.540Z,5.37
2019-05-13T02:07:57.801Z,5.83
2019-05-13T02:10:44.333Z,6.10
2019-05-13T02:13:10.832Z,4.70
2019-05-13T02:15:38.167Z,4.70
2019-05-13T02:18:05.499Z,5.60
2019-05-13T02:20:33.523Z,5.50
2019-05-13T02:23:00.977Z,5.60
2019-05-13T02:25:28.311Z,5.27
2019-05-13T02:27:55.592Z,6.03
2019-05-13T02:30:26.578Z,5.63
2019-05-13T02:32:53.134Z,5.17
2019-05-13T02:35:23.113Z,5.37
2019-05-13T02:37:52.566Z,4.80
2019-05-13T02:40:22.667Z,5.10
2019-05-13T02:42:52.157Z,5.47
2019-05-13T02:45:18.644Z,5.20
2019-05-13T02:47:46.180Z,5.37
2019-05-13T02:50:14.084Z,5.20
2019-05-13T02:52:44.404Z,4.97
2019-05-13T02:55:12.344Z,4.70
2019-05-13T02:57:43.279Z,4.90
2019-05-13T03:00:12.731Z,4.80
2019-05-13T03:02:39.012Z,5.97
2019-05-13T03:05:07.517Z,5.43
2019-05-13T03:07:34.851Z,4.80
2019-05-13T03:10:04.192Z,5.10
2019-05-13T03:12:32.367Z,4.73
2019-05-13T03:15:02.672Z,4.60
2019-05-13T03:17:43.292Z,5.00
2019-05-13T03:20:15.772Z,6.20
2019-05-13T03:22:43.099Z,6.10
2019-05-13T03:25:12.877Z,5.50
2019-05-13T03:27:38.730Z,4.57
2019-05-13T03:30:06.171Z,5.10
2019-05-13T03:32:43.184Z,4.60
2019-05-13T03:35:07.205Z,4.77
2019-05-13T03:37:34.890Z,5.43
2019-05-13T03:40:03.297Z,5.57
2019-05-13T03:42:33.715Z,5.37
2019-05-13T03:45:03.865Z,5.30
2019-05-13T03:47:33.578Z,4.90
2019-05-13T03:50:03.553Z,5.27
2019-05-13T03:52:33.529Z,4.93
2019-05-13T03:55:02.881Z,4.90
2019-05-13T03:57:29.178Z,5.37
2019-05-13T03:59:56.550Z,5.17
2019-05-13T04:02:23.996Z,5.60
2019-05-13T04:04:53.108Z,5.30
2019-05-13T04:07:23.816Z,5.87
2019-05-13T04:09:52.520Z,6.27
2019-05-13T04:12:22.572Z,5.63
2019-05-13T04:14:48.739Z,5.97
2019-05-13T04:17:16.197Z,4.83
2019-05-13T04:19:43.638Z,5.70
2019-05-13T04:22:12.874Z,6.40
2019-05-13T04:24:42.711Z,5.83
2019-05-13T04:27:12.894Z,5.80
2019-05-13T04:29:38.858Z,5.10
2019-05-13T04:32:06.419Z,5.03
2019-05-13T04:34:34.253Z,4.77
2019-05-13T04:37:02.390Z,5.50
2019-05-13T04:39:41.673Z,5.63
2019-05-13T04:42:02.034Z,5.77
2019-05-13T04:44:28.499Z,5.33
2019-05-13T04:46:56.449Z,5.60
2019-05-13T04:49:24.123Z,5.53
2019-05-13T04:51:52.473Z,5.00
2019-05-13T04:54:22.533Z,5.87
2019-05-13T04:56:52.241Z,5.80
2019-05-13T04:59:18.530Z,5.60
2019-05-13T05:02:36.777Z,5.67
2019-05-13T05:05:04.691Z,5.67
2019-05-13T05:07:52.563Z,5.73
2019-05-13T05:11:03.121Z,5.77
2019-05-13T05:13:58.967Z,5.50
2019-05-13T05:17:42.963Z,5.63
2019-05-13T05:20:23.218Z,5.23
2019-05-13T05:23:39.040Z,5.50
2019-05-13T05:26:45.294Z,5.80
2019-05-13T05:29:33.918Z,5.63
2019-05-13T05:32:21.544Z,5.63
2019-05-13T05:35:14.692Z,5.47
2019-05-13T05:38:12.596Z,5.40
2019-05-13T05:40:42.587Z,5.60
2019-05-13T05:43:11.678Z,5.57
2019-05-13T05:45:41.166Z,5.50
2019-05-13T05:48:08.344Z,5.83
2019-05-13T05:50:42.375Z,6.00
2019-05-13T05:53:13.886Z,6.27
2019-05-13T05:55:42.274Z,5.83
2019-05-13T05:58:12.746Z,6.10
2019-05-13T06:00:41.543Z,6.03
2019-05-13T06:03:09.167Z,5.90
2019-05-13T06:05:36.808Z,5.90
2019-05-13T06:08:04.539Z,5.50
2019-05-13T06:10:45.804Z,5.70
2019-05-13T06:13:02.876Z,4.80
2019-05-13T06:15:31.484Z,5.00
2019-05-13T06:17:59.021Z,5.43
2019-05-13T06:20:26.595Z,5.20
2019-05-13T06:22:53.948Z,5.13
2019-05-13T06:25:23.300Z,4.90
2019-05-13T06:27:51.269Z,4.80
2019-05-13T06:30:21.509Z,5.10
2019-05-13T06:32:48.465Z,4.67
2019-05-13T06:35:15.875Z,5.40
2019-05-13T06:37:43.404Z,5.43
2019-05-13T06:40:12.383Z,5.10
2019-05-13T06:42:41.699Z,5.40
2019-05-13T06:45:12.311Z,6.97
2019-05-13T06:47:41.297Z,5.33
2019-05-13T06:50:11.625Z,6.00
2019-05-13T06:52:38.719Z,6.73
2019-05-13T06:55:06.161Z,6.57
2019-05-13T06:57:33.747Z,5.90
2019-05-13T07:00:01.823Z,6.43
2019-05-13T07:02:31.858Z,6.40
2019-05-13T07:04:58.909Z,6.10
2019-05-13T07:07:26.365Z,5.77
2019-05-13T07:09:53.717Z,5.23
2019-05-13T07:12:21.943Z,5.13
2019-05-13T07:14:51.845Z,5.27
2019-05-13T07:17:22.539Z,5.43
2019-05-13T07:19:51.688Z,5.67
2019-05-13T07:22:22.694Z,5.67
2019-05-13T07:24:48.695Z,5.17
2019-05-13T07:27:16.144Z,5.10
2019-05-13T07:29:43.557Z,5.33
2019-05-13T07:32:12.010Z,5.30
2019-05-13T07:34:43.489Z,5.47
2019-05-13T07:37:11.175Z,5.27
2019-05-13T07:39:38.257Z,5.30
2019-05-13T07:42:06.329Z,4.73
2019-05-13T07:44:36.589Z,4.70
2019-05-13T07:47:04.074Z,5.33
2019-05-13T07:49:33.597Z,5.77
2019-05-13T07:52:01.835Z,4.50
2019-05-13T07:54:29.582Z,4.17
2019-05-13T07:56:57.005Z,4.87
2019-05-13T07:59:24.429Z,4.90
2019-05-13T08:01:52.328Z,5.10
2019-05-13T08:04:23.681Z,5.60
2019-05-13T08:06:49.087Z,5.00
2019-05-13T08:09:16.886Z,5.10
2019-05-13T08:12:00.231Z,5.43
2019-05-13T08:14:13.641Z,5.33
2019-05-13T08:16:42.739Z,4.63
2019-05-13T08:19:12.316Z,5.27
2019-05-13T08:21:41.704Z,5.47
2019-05-13T08:24:11.719Z,4.67
2019-05-13T08:26:44.962Z,4.90
2019-05-13T08:29:08.048Z,5.50
2019-05-13T08:31:35.496Z,4.43
2019-05-13T08:34:02.829Z,5.23
2019-05-13T08:36:32.539Z,5.60
2019-05-13T08:41:21.140Z,4.30
2019-05-13T08:43:48.419Z,4.40
2019-05-13T08:46:15.799Z,4.33
2019-05-13T08:48:43.167Z,4.57
2019-05-13T08:51:11.629Z,3.60
2019-05-13T08:53:39.346Z,3.60
2019-05-13T08:56:06.698Z,5.20
2019-05-13T08:58:34.283Z,5.37
2019-05-13T09:01:02.322Z,4.00
2019-05-13T09:03:32.582Z,4.40
2019-05-13T09:06:02.529Z,4.30
2019-05-13T09:08:31.834Z,3.73
2019-05-13T09:11:01.388Z,3.93
2019-05-13T09:13:28.240Z,3.90
2019-05-13T09:15:55.775Z,5.93
2019-05-13T09:18:23.106Z,5.13
2019-05-13T09:20:52.055Z,3.80
2019-05-13T09:23:22.175Z,4.40
2019-05-13T09:25:49.147Z,5.40
2019-05-13T09:28:16.606Z,4.17
2019-05-13T09:30:44.041Z,4.47
2019-05-13T09:33:11.627Z,3.73
2019-05-13T09:35:39.219Z,3.83
2019-05-13T09:38:06.586Z,4.47
2019-05-13T09:40:34.039Z,4.57
2019-05-13T09:43:02.562Z,3.40
2019-05-13T09:45:32.097Z,3.83
2019-05-13T09:48:01.461Z,4.63
2019-05-13T09:50:33.197Z,3.50
2019-05-13T09:52:57.811Z,4.40
2019-05-13T09:55:29.221Z,4.37
2019-05-13T09:57:54.443Z,3.97
2019-05-13T10:00:22.010Z,3.83
2019-05-13T10:02:51.407Z,4.03
2019-05-13T10:05:18.635Z,3.80
2019-05-13T10:07:46.203Z,3.53
2019-05-13T10:10:15.618Z,3.37
2019-05-13T10:12:42.963Z,4.00
2019-05-13T10:15:12.551Z,4.60
2019-05-13T10:17:42.766Z,3.37
2019-05-13T10:20:12.092Z,3.80
2019-05-13T10:22:41.706Z,3.40
2019-05-13T10:25:12.287Z,3.50
2019-05-13T10:27:41.901Z,3.77
2019-05-13T10:30:11.425Z,4.07
2019-05-13T10:32:42.282Z,3.40
2019-05-13T10:35:08.579Z,3.67
2019-05-13T10:37:36.215Z,4.37
2019-05-13T10:40:05.099Z,3.47
2019-05-13T10:42:32.822Z,5.13
2019-05-13T10:45:02.490Z,3.83
2019-05-13T10:47:29.391Z,4.17
2019-05-13T10:49:56.769Z,3.83
2019-05-13T10:52:24.702Z,4.77
2019-05-13T10:55:01.667Z,6.07
2019-05-13T10:57:28.158Z,5.70
2019-05-13T10:59:59.683Z,3.97
2019-05-13T11:02:25.213Z,4.37
2019-05-13T11:04:52.783Z,3.53
2019-05-13T11:07:22.468Z,3.80
2019-05-13T11:09:52.470Z,4.17
2019-05-13T11:12:18.919Z,3.40
2019-05-13T11:14:51.555Z,4.93
2019-05-13T11:17:16.334Z,4.87
2019-05-13T11:19:43.813Z,3.80
2019-05-13T11:22:12.293Z,3.97
2019-05-13T11:24:42.883Z,3.90
2019-05-13T11:27:11.795Z,3.53
2019-05-13T11:29:38.457Z,4.50
2019-05-13T11:32:05.959Z,3.50
2019-05-13T11:34:33.383Z,3.60
2019-05-13T11:37:03.761Z,4.73
2019-05-13T11:39:32.552Z,3.70
2019-05-13T11:42:02.043Z,3.97
2019-05-13T11:44:28.569Z,3.60
2019-05-13T11:46:56.297Z,3.87
2019-05-13T11:49:23.850Z,4.23
2019-05-13T11:51:52.063Z,4.83
2019-05-13T11:54:22.201Z,3.20
2019-05-13T11:56:52.140Z,4.27
2019-05-13T11:59:18.205Z,3.77
2019-05-13T12:01:45.659Z,3.60
2019-05-13T12:04:13.086Z,3.70
2019-05-13T12:06:48.036Z,3.33
2019-05-13T12:09:13.048Z,4.10
2019-05-13T12:11:39.349Z,3.30
2019-05-13T12:14:06.784Z,4.73
2019-05-13T12:16:35.162Z,3.80
2019-05-13T12:19:03.671Z,2.90
2019-05-13T12:21:31.422Z,3.30
2019-05-13T12:24:07.085Z,3.63
2019-05-13T12:26:28.328Z,3.20
2019-05-13T12:28:56.096Z,3.40
2019-05-13T12:31:23.448Z,3.10
2019-05-13T12:33:52.329Z,3.10
2019-05-13T12:36:23.632Z,3.00
2019-05-13T12:38:52.909Z,3.63
2019-05-13T12:41:18.856Z,3.00
2019-05-13T12:43:46.328Z,3.73
2019-05-13T12:46:13.730Z,3.23
2019-05-13T12:48:41.185Z,3.07
2019-05-13T12:51:08.655Z,3.33
2019-05-13T12:53:36.041Z,3.30
2019-05-13T12:56:03.855Z,3.20
2019-05-13T12:58:33.968Z,3.10
2019-05-13T13:01:01.591Z,3.00
2019-05-13T13:03:29.087Z,2.93
2019-05-13T13:06:21.224Z,3.60
2019-05-13T13:08:43.065Z,3.30
2019-05-13T13:10:58.637Z,3.23
2019-05-13T13:13:52.461Z,4.03
2019-05-13T13:15:55.555Z,3.30
2019-05-13T13:18:31.028Z,3.03
2019-05-13T13:21:05.194Z,3.57
2019-05-13T13:23:27.819Z,3.73
2019-05-13T13:25:57.171Z,2.93
2019-05-13T13:28:24.911Z,3.40
2019-05-13T13:30:53.073Z,3.50
2019-05-13T13:33:20.813Z,3.03
2019-05-13T13:35:58.616Z,3.17
2019-05-13T13:38:17.485Z,3.10
2019-05-13T13:40:53.820Z,3.30
2019-05-13T13:43:25.039Z,3.33
2019-05-13T13:46:07.671Z,3.27
2019-05-13T13:48:24.906Z,3.10
2019-05-13T13:50:48.559Z,3.13
2019-05-13T13:53:16.137Z,2.87
2019-05-13T13:55:44.631Z,3.03
2019-05-13T13:58:14.161Z,3.80
2019-05-13T14:00:59.700Z,3.20
2019-05-13T14:03:12.389Z,3.20
2019-05-13T14:05:42.886Z,3.07
2019-05-13T14:08:09.357Z,3.20
2019-05-13T14:10:36.806Z,3.10
2019-05-13T14:13:04.955Z,3.00
2019-05-13T14:15:34.414Z,3.00
2019-05-13T14:18:01.734Z,2.90
2019-05-13T14:20:29.199Z,2.77
2019-05-13T14:22:57.968Z,3.17
2019-05-13T14:25:25.734Z,2.87
2019-05-13T14:27:53.170Z,3.20
2019-05-13T14:30:21.751Z,3.13
2019-05-13T14:32:51.977Z,3.00
2019-05-13T14:35:18.762Z,3.20
2019-05-13T14:37:46.337Z,3.03
2019-05-13T14:40:14.179Z,2.80
2019-05-13T14:42:42.658Z,2.70
2019-05-13T14:45:12.205Z,2.70
2019-05-13T14:47:39.935Z,3.00
2019-05-13T14:50:07.558Z,2.90
2019-05-13T14:52:34.981Z,3.00
2019-05-13T14:55:02.425Z,2.90
2019-05-13T14:57:32.091Z,3.10
2019-05-13T15:00:02.170Z,3.40
2019-05-13T15:02:29.537Z,2.80
2019-05-13T15:04:58.369Z,2.90
2019-05-13T15:07:34.531Z,3.10
2019-05-13T15:10:10.888Z,2.83
2019-05-13T15:12:38.431Z,3.07
2019-05-13T15:15:06.248Z,3.00
2019-05-13T15:17:34.849Z,3.00
2019-05-13T15:20:02.400Z,3.10
2019-05-13T15:22:31.859Z,3.10
2019-05-13T15:24:59.226Z,2.97
2019-05-13T15:27:26.645Z,3.07
2019-05-13T15:29:54.036Z,3.17
2019-05-13T15:32:21.898Z,3.10
2019-05-13T15:34:51.723Z,3.03
2019-05-13T15:37:21.270Z,2.87
2019-05-13T15:39:48.133Z,2.70
2019-05-13T15:42:15.521Z,3.00
2019-05-13T15:44:42.984Z,3.20
2019-05-13T15:47:29.140Z,3.00
2019-05-13T15:49:39.819Z,3.00
2019-05-13T15:52:07.268Z,3.27
2019-05-13T15:54:34.713Z,3.57
2019-05-13T15:57:02.488Z,3.20
2019-05-13T15:59:30.054Z,3.03
2019-05-13T16:01:57.564Z,3.00
2019-05-13T16:04:25.046Z,3.07
2019-05-13T16:06:52.538Z,2.70
2019-05-13T16:09:20.425Z,3.23
2019-05-13T16:11:47.832Z,2.60
2019-05-13T16:14:15.331Z,2.80
2019-05-13T16:16:42.783Z,3.13
2019-05-13T16:19:10.107Z,3.40
2019-05-13T16:21:37.499Z,3.10
2019-05-13T16:24:05.126Z,3.00
2019-05-13T16:26:32.866Z,2.90
2019-05-13T16:29:02.069Z,2.97
2019-05-13T16:31:31.698Z,3.10
2019-05-13T16:34:01.028Z,3.00
2019-05-13T16:36:28.342Z,2.87
2019-05-13T16:38:55.900Z,3.20
2019-05-13T16:41:23.397Z,3.03
2019-05-13T16:43:50.921Z,3.00
2019-05-13T16:46:18.335Z,3.00
2019-05-13T16:48:45.796Z,3.37
2019-05-13T16:51:13.138Z,2.73
2019-05-13T16:53:43.019Z,3.20
2019-05-13T16:56:25.368Z,2.70
2019-05-13T16:58:41.760Z,2.90
2019-05-13T17:01:11.785Z,2.67
2019-05-13T17:03:41.517Z,2.70
2019-05-13T17:06:08.854Z,3.13
2019-05-13T17:08:36.195Z,2.73
2019-05-13T17:11:03.817Z,2.90
2019-05-13T17:13:31.571Z,3.73
2019-05-13T17:16:01.398Z,3.30
2019-05-13T17:18:28.702Z,2.90
2019-05-13T17:20:57.329Z,3.97
2019-05-13T17:23:25.110Z,3.67
2019-05-13T17:25:52.546Z,3.17
2019-05-13T17:28:21.939Z,3.00
2019-05-13T17:30:51.765Z,3.00
2019-05-13T17:33:18.547Z,3.40
2019-05-13T17:35:46.003Z,3.20
2019-05-13T17:38:13.476Z,2.90
2019-05-13T17:40:41.978Z,3.40
2019-05-13T17:43:11.789Z,3.23
2019-05-13T17:45:39.005Z,3.20
2019-05-13T17:48:06.500Z,3.20
2019-05-13T17:50:33.981Z,3.27
2019-05-13T17:53:02.177Z,3.30
2019-05-13T17:55:32.308Z,2.97
2019-05-13T17:58:01.408Z,3.20
2019-05-13T18:00:29.021Z,2.97
2019-05-13T18:02:56.338Z,2.80
2019-05-13T18:05:23.791Z,2.80
2019-05-13T18:07:51.399Z,2.90
2019-05-13T18:10:18.866Z,2.87
2019-05-13T18:12:46.360Z,3.63
2019-05-13T18:15:14.433Z,4.90
2019-05-13T18:17:42.355Z,5.00
2019-05-13T18:20:10.267Z,4.33
2019-05-13T18:22:38.001Z,4.47
2019-05-13T18:25:06.051Z,3.60
2019-05-13T18:27:35.500Z,4.00
2019-05-13T18:30:03.747Z,3.67
2019-05-13T18:32:36.250Z,3.90
2019-05-13T18:35:04.050Z,4.07
2019-05-13T18:37:33.843Z,3.60
2019-05-13T18:40:02.539Z,4.40
2019-05-13T18:42:31.783Z,3.80
2019-05-13T18:45:02.202Z,3.73
2019-05-13T18:47:31.599Z,3.77
2019-05-13T18:50:02.304Z,4.40
2019-05-13T18:52:36.789Z,3.80
2019-05-13T18:55:08.918Z,3.60
2019-05-13T18:58:41.669Z,3.60
2019-05-13T19:04:53.222Z,3.60
2019-05-13T19:10:41.380Z,3.70
2019-05-13T19:11:22.530Z,4.67
2019-05-13T19:13:08.784Z,3.60
2019-05-13T19:15:37.780Z,5.13
2019-05-13T19:18:27.478Z,3.30
2019-05-13T19:20:54.878Z,3.40
2019-05-13T19:23:22.407Z,4.07
2019-05-13T19:25:51.369Z,4.37
2019-05-13T19:28:18.986Z,3.03
2019-05-13T19:30:46.436Z,3.10
2019-05-13T19:33:13.831Z,3.97
2019-05-13T19:35:42.556Z,3.60
2019-05-13T19:38:15.244Z,3.30
2019-05-13T19:40:48.524Z,3.20
2019-05-13T19:43:16.109Z,3.67
2019-05-13T19:45:43.967Z,3.30
2019-05-13T19:51:34.662Z,3.37
2019-05-13T19:54:04.946Z,3.50
2019-05-13T19:56:35.889Z,5.50
2019-05-13T19:59:03.340Z,4.03
2019-05-13T20:01:32.185Z,4.93
2019-05-13T20:04:02.148Z,5.00
2019-05-13T20:06:29.085Z,3.50
2019-05-13T20:08:57.701Z,3.83
2019-05-13T20:11:25.055Z,3.70
2019-05-13T20:13:53.755Z,3.30
2019-05-13T20:16:22.209Z,3.90
2019-05-13T20:18:53.465Z,3.60
2019-05-13T20:21:20.978Z,3.73
2019-05-13T20:23:48.454Z,3.50
2019-05-13T20:26:15.826Z,3.60
2019-05-13T20:28:43.209Z,3.97
2019-05-13T20:31:11.164Z,3.83
2019-05-13T20:33:40.154Z,3.57
2019-05-13T20:36:07.956Z,4.17
2019-05-13T20:38:35.446Z,3.53
2019-05-13T20:41:02.768Z,4.67
2019-05-13T20:43:32.674Z,4.57
2019-05-13T20:46:01.747Z,4.03
2019-05-13T20:48:31.516Z,4.00
2019-05-13T20:50:58.544Z,3.60
2019-05-13T20:53:25.958Z,4.07
2019-05-13T20:55:53.522Z,3.77
2019-05-13T20:58:21.431Z,4.40
2019-05-13T21:00:51.384Z,4.40
2019-05-13T21:03:18.394Z,4.17
2019-05-13T21:05:45.882Z,4.03
2019-05-13T21:08:13.338Z,3.23
2019-05-13T21:10:42.197Z,3.60
2019-05-13T21:13:12.083Z,3.30
2019-05-13T21:15:39.008Z,4.23
2019-05-13T21:18:06.356Z,3.30
2019-05-13T21:20:33.829Z,3.90
2019-05-13T21:23:02.262Z,4.13
2019-05-13T21:25:31.090Z,3.10
2019-05-13T21:27:58.896Z,3.30
2019-05-13T21:30:26.341Z,3.57
2019-05-13T21:32:53.854Z,3.07
2019-05-13T21:35:21.387Z,3.60
2019-05-13T21:37:51.048Z,2.83
2019-05-13T21:40:18.698Z,3.23
2019-05-13T21:42:46.152Z,3.07
2019-05-13T21:45:13.619Z,2.87
2019-05-13T21:47:41.004Z,3.23
2019-05-13T21:50:11.341Z,3.27
2019-05-13T21:52:38.324Z,2.80
2019-05-13T21:55:06.553Z,2.80
2019-05-13T21:57:33.982Z,3.20
2019-05-13T22:00:02.072Z,3.80
2019-05-13T22:02:31.671Z,2.93
2019-05-13T22:05:00.952Z,2.90
2019-05-13T22:07:28.260Z,2.90
2019-05-13T22:09:55.745Z,3.03
2019-05-13T22:12:23.069Z,3.23
2019-05-13T22:14:51.738Z,2.87
2019-05-13T22:17:22.215Z,2.70
2019-05-13T22:19:51.217Z,3.43
2019-05-13T22:22:18.896Z,3.10
2019-05-13T22:24:46.255Z,4.33
2019-05-13T22:27:13.618Z,3.20
2019-05-13T22:29:41.548Z,2.87
2019-05-13T22:32:11.149Z,2.70
2019-05-13T22:34:38.253Z,2.97
2019-05-13T22:37:05.713Z,2.90
2019-05-13T22:39:34.843Z,2.87
2019-05-13T22:42:02.395Z,3.03
2019-05-13T22:44:32.250Z,2.70
2019-05-13T22:46:59.121Z,2.83
2019-05-13T22:49:26.513Z,3.47
2019-05-13T22:51:53.932Z,3.03
2019-05-13T22:54:21.316Z,3.10
2019-05-13T22:56:48.769Z,2.60
2019-05-13T22:59:16.150Z,3.23
2019-05-13T23:01:43.567Z,2.50
2019-05-13T23:04:11.424Z,2.60
2019-05-13T23:06:39.227Z,2.70
2019-05-13T23:09:06.641Z,2.50
2019-05-13T23:11:34.038Z,2.70
2019-05-13T23:14:09.737Z,2.87
2019-05-13T23:16:31.618Z,3.57
2019-05-13T23:18:59.477Z,3.00
2019-05-13T23:21:26.924Z,3.27
2019-05-13T23:23:54.280Z,3.30
2019-05-13T23:26:21.667Z,2.60
2019-05-13T23:28:49.079Z,2.87
2019-05-13T23:31:16.544Z,3.33
2019-05-13T23:33:44.023Z,2.73
2019-05-13T23:36:11.955Z,2.93
2019-05-13T23:41:15.241Z,2.90
2019-05-13T23:43:42.626Z,2.77
2019-05-13T23:46:11.736Z,2.60
2019-05-13T23:48:41.324Z,2.60
2019-05-13T23:51:08.812Z,2.80
2019-05-13T23:53:36.337Z,3.00
2019-05-13T23:56:03.658Z,3.57
2019-05-13T23:58:32.136Z,2.87
